createdAt,value
2022-12-02T00:02:51.846Z,4.06
2022-12-02T00:06:54.372Z,4.08
2022-12-02T00:10:56.599Z,4.09
2022-12-02T00:15:00.472Z,4.07
2022-12-02T00:19:01.878Z,4.07
2022-12-02T00:23:03.250Z,4.10
2022-12-02T00:27:04.755Z,4.10
2022-12-02T00:31:06.103Z,4.13
2022-12-02T00:35:07.465Z,4.13
2022-12-02T00:39:08.835Z,4.12
2022-12-02T00:43:28.901Z,4.10
2022-12-02T00:47:30.187Z,4.11
2022-12-02T00:51:31.899Z,4.14
2022-12-02T00:55:33.180Z,4.14
2022-12-02T00:59:34.469Z,4.16
2022-12-02T01:03:36.719Z,4.15
2022-12-02T01:07:40.432Z,4.14
2022-12-02T01:11:41.830Z,4.16
2022-12-02T01:15:44.973Z,4.18
2022-12-02T01:19:49.202Z,4.18
2022-12-02T01:23:51.010Z,4.16
2022-12-02T01:27:52.552Z,4.15
2022-12-02T01:31:55.718Z,4.17
2022-12-02T01:35:57.051Z,4.09
2022-12-02T01:39:58.328Z,4.05
2022-12-02T01:43:59.678Z,4.06
2022-12-02T01:48:02.407Z,4.05
2022-12-02T01:52:03.900Z,4.05
2022-12-02T01:56:05.388Z,4.06
2022-12-02T02:00:35.083Z,4.01
2022-12-02T02:04:37.376Z,4.03
2022-12-02T02:08:39.938Z,4.08
2022-12-02T02:12:44.587Z,4.13
2022-12-02T02:16:46.202Z,4.14
2022-12-02T02:20:48.288Z,4.13
2022-12-02T02:24:49.855Z,4.13
2022-12-02T02:28:51.451Z,4.12
2022-12-02T02:32:52.806Z,4.08
2022-12-02T02:36:54.511Z,4.07
2022-12-02T02:40:56.427Z,4.10
2022-12-02T02:44:58.076Z,4.09
2022-12-02T02:48:59.387Z,4.09
2022-12-02T02:53:01.644Z,4.11
2022-12-02T02:57:02.975Z,4.13
2022-12-02T03:01:12.174Z,4.10
2022-12-02T03:05:13.602Z,4.13
2022-12-02T03:09:16.814Z,4.16
2022-12-02T03:13:18.525Z,4.19
2022-12-02T03:17:20.241Z,4.20
2022-12-02T03:21:22.220Z,4.20
2022-12-02T03:25:23.676Z,4.21
2022-12-02T03:29:24.946Z,4.22
2022-12-02T03:33:26.702Z,4.24
2022-12-02T03:37:28.147Z,4.25
2022-12-02T03:41:29.660Z,4.27
2022-12-02T03:45:32.191Z,4.30
2022-12-02T03:49:35.192Z,4.29
2022-12-02T03:53:36.954Z,4.30
2022-12-02T03:57:44.554Z,4.25
2022-12-02T04:01:45.889Z,4.27
2022-12-02T04:05:49.666Z,4.27
2022-12-02T04:09:51.076Z,4.26
2022-12-02T04:13:53.059Z,4.25
2022-12-02T04:17:54.658Z,4.26
2022-12-02T04:21:56.868Z,4.23
2022-12-02T04:25:58.197Z,4.27
2022-12-02T04:30:05.448Z,4.29
2022-12-02T04:34:07.623Z,4.31
2022-12-02T04:38:12.313Z,4.33
2022-12-02T04:42:14.783Z,4.32
2022-12-02T04:46:16.261Z,4.29
2022-12-02T04:50:17.647Z,4.29
2022-12-02T04:54:18.956Z,4.27
2022-12-02T04:58:20.291Z,4.25
2022-12-02T05:02:21.618Z,4.24
2022-12-02T05:06:22.999Z,4.18
2022-12-02T05:10:24.377Z,4.20
2022-12-02T05:14:26.044Z,4.20
2022-12-02T05:18:28.035Z,4.18
2022-12-02T05:22:29.360Z,4.15
2022-12-02T05:26:30.750Z,4.17
2022-12-02T05:30:35.913Z,4.19
2022-12-02T05:39:23.843Z,4.21
2022-12-02T05:43:30.959Z,4.22
2022-12-02T05:47:40.297Z,4.23
2022-12-02T05:52:19.427Z,4.22
2022-12-02T05:56:29.232Z,4.21
2022-12-02T06:00:36.063Z,4.23
2022-12-02T06:04:37.695Z,4.23
2022-12-02T06:08:40.774Z,4.25
2022-12-02T06:12:44.032Z,4.26
2022-12-02T06:16:58.909Z,4.29
2022-12-02T06:21:03.183Z,4.26
2022-12-02T06:25:24.372Z,4.28
2022-12-02T06:29:28.051Z,4.24
2022-12-02T06:33:31.766Z,4.28
2022-12-02T06:37:34.222Z,4.27
2022-12-02T06:41:37.627Z,4.28
2022-12-02T06:45:39.109Z,4.30
2022-12-02T06:49:40.508Z,4.28
2022-12-02T06:53:42.147Z,4.29
2022-12-02T06:57:43.606Z,4.31
2022-12-02T07:01:45.272Z,4.32
2022-12-02T07:05:53.152Z,4.28
2022-12-02T07:09:57.499Z,4.30
2022-12-02T07:13:58.926Z,4.29
2022-12-02T07:18:12.837Z,4.33
2022-12-02T07:22:14.205Z,4.36
2022-12-02T07:26:15.526Z,4.37
2022-12-02T07:30:17.180Z,4.37
2022-12-02T07:34:18.577Z,4.36
2022-12-02T07:38:36.487Z,4.34
2022-12-02T07:42:41.722Z,4.37
2022-12-02T07:46:43.295Z,4.37
2022-12-02T07:50:44.574Z,4.39
2022-12-02T07:54:45.987Z,4.42
2022-12-02T08:03:08.583Z,4.47
2022-12-02T08:07:09.916Z,4.52
2022-12-02T08:11:11.225Z,4.56
2022-12-02T08:15:34.008Z,4.62
2022-12-02T08:19:45.505Z,4.61
2022-12-02T08:23:46.835Z,4.64
2022-12-02T08:27:48.540Z,4.65
2022-12-02T08:31:52.816Z,4.66
2022-12-02T08:35:57.594Z,4.64
2022-12-02T08:40:02.098Z,4.63
2022-12-02T08:44:04.534Z,4.71
2022-12-02T08:48:06.507Z,4.79
2022-12-02T08:52:12.930Z,4.77
2022-12-02T08:56:17.327Z,4.77
2022-12-02T09:00:23.352Z,4.70
2022-12-02T09:04:25.379Z,4.67
2022-12-02T09:08:32.160Z,4.68
2022-12-02T09:16:56.834Z,4.69
2022-12-02T09:21:00.251Z,4.72
2022-12-02T09:25:03.490Z,4.72
2022-12-02T09:29:05.016Z,4.72
2022-12-02T09:33:06.583Z,4.76
2022-12-02T09:37:09.283Z,4.77
2022-12-02T09:41:10.991Z,4.77
2022-12-02T09:45:12.766Z,4.74
2022-12-02T09:49:14.120Z,4.72
2022-12-02T09:53:17.032Z,4.67
2022-12-02T09:57:19.496Z,4.66
2022-12-02T10:01:21.178Z,4.65
2022-12-02T10:05:24.582Z,4.63
2022-12-02T10:09:27.970Z,4.62
2022-12-02T10:13:31.779Z,4.64
2022-12-02T10:17:33.106Z,4.63
2022-12-02T10:21:34.690Z,4.64
2022-12-02T10:25:36.600Z,4.61
2022-12-02T10:29:38.227Z,4.61
2022-12-02T10:33:40.840Z,4.60
2022-12-02T10:37:42.169Z,4.61
2022-12-02T10:41:43.456Z,4.60
2022-12-02T10:45:57.490Z,4.60
2022-12-02T10:49:59.359Z,4.58
2022-12-02T10:54:01.959Z,4.57
2022-12-02T10:58:03.580Z,4.59
2022-12-02T11:02:18.191Z,4.60
2022-12-02T11:06:20.430Z,4.60
2022-12-02T11:10:23.288Z,4.61
2022-12-02T11:14:39.977Z,4.61
2022-12-02T11:18:41.262Z,4.58
2022-12-02T11:23:06.152Z,4.59
2022-12-02T11:27:10.084Z,4.61
2022-12-02T11:31:16.437Z,4.62
2022-12-02T11:35:19.573Z,4.64
2022-12-02T11:39:39.942Z,4.65
2022-12-02T11:43:42.507Z,4.63
2022-12-02T11:47:44.825Z,4.63
2022-12-02T11:51:46.883Z,4.63
2022-12-02T11:55:52.202Z,4.64
2022-12-02T11:59:53.999Z,4.57
2022-12-02T12:03:55.302Z,4.55
2022-12-02T12:08:02.607Z,4.63
2022-12-02T12:12:18.609Z,4.60
2022-12-02T12:16:23.054Z,4.58
2022-12-02T12:20:24.295Z,4.64
2022-12-02T12:24:26.755Z,4.65
2022-12-02T12:28:29.655Z,4.58
2022-12-02T12:32:31.211Z,4.57
2022-12-02T12:36:32.631Z,4.60
2022-12-02T12:40:34.382Z,4.61
2022-12-02T12:44:35.662Z,4.63
2022-12-02T12:48:37.219Z,4.65
2022-12-02T12:52:38.474Z,4.63
2022-12-02T12:56:40.502Z,4.59
2022-12-02T13:00:41.800Z,4.60
2022-12-02T13:04:43.094Z,4.58
2022-12-02T13:08:44.445Z,4.60
2022-12-02T13:12:47.036Z,4.63
2022-12-02T13:16:58.307Z,4.64
2022-12-02T13:21:00.642Z,4.65
2022-12-02T13:25:06.678Z,4.68
2022-12-02T13:29:08.667Z,4.67
2022-12-02T13:33:11.006Z,4.69
2022-12-02T13:37:12.391Z,4.71
2022-12-02T13:41:15.199Z,4.69
2022-12-02T13:45:16.936Z,4.70
2022-12-02T13:49:23.484Z,4.71
2022-12-02T13:53:25.964Z,4.69
2022-12-02T13:57:28.704Z,4.69
2022-12-02T14:01:33.023Z,4.66
2022-12-02T14:05:36.926Z,4.68
2022-12-02T14:09:45.731Z,4.68
2022-12-02T14:13:53.491Z,4.66
2022-12-02T14:18:03.456Z,4.65
2022-12-02T14:22:10.320Z,4.63
2022-12-02T14:30:47.067Z,4.50
2022-12-02T14:34:49.483Z,4.51
2022-12-02T14:38:53.807Z,4.51
2022-12-02T14:42:55.455Z,4.50
2022-12-02T14:46:58.860Z,4.51
2022-12-02T14:51:05.541Z,4.47
2022-12-02T14:55:06.996Z,4.43
2022-12-02T14:59:12.802Z,4.40
2022-12-02T15:03:16.307Z,4.40
2022-12-02T15:07:17.645Z,4.41
2022-12-02T15:11:18.996Z,4.41
2022-12-02T15:19:41.703Z,4.40
2022-12-02T15:23:46.160Z,4.39
2022-12-02T15:27:47.486Z,4.33
2022-12-02T15:31:48.836Z,4.29
2022-12-02T15:35:51.054Z,4.24
2022-12-02T15:39:52.541Z,4.19
2022-12-02T15:43:54.371Z,4.16
2022-12-02T15:47:55.751Z,4.15
2022-12-02T15:51:57.139Z,4.11
2022-12-02T15:55:58.465Z,4.07
2022-12-02T16:00:04.720Z,4.08
2022-12-02T16:04:06.167Z,4.08
2022-12-02T16:08:07.556Z,4.04
2022-12-02T16:12:08.911Z,3.98
2022-12-02T16:16:10.218Z,3.93
2022-12-02T16:20:11.937Z,3.93
2022-12-02T16:24:13.434Z,3.88
2022-12-02T16:28:14.911Z,3.84
2022-12-02T16:32:20.325Z,3.80
2022-12-02T16:36:22.183Z,3.78
2022-12-02T16:40:23.557Z,3.74
2022-12-02T16:44:24.995Z,3.73
2022-12-02T16:48:27.480Z,3.64
2022-12-02T16:52:28.807Z,3.64
2022-12-02T16:56:37.252Z,3.65
2022-12-02T17:00:38.589Z,3.60
2022-12-02T17:04:40.103Z,3.59
2022-12-02T17:08:41.477Z,3.57
2022-12-02T17:12:43.179Z,3.57
2022-12-02T17:16:44.508Z,3.58
2022-12-02T17:20:47.879Z,3.57
2022-12-02T17:24:52.724Z,3.54
2022-12-02T17:28:54.172Z,3.54
2022-12-02T17:33:05.983Z,3.54
2022-12-02T17:37:32.923Z,3.57
2022-12-02T17:41:36.034Z,3.55
2022-12-02T17:45:37.832Z,3.53
2022-12-02T17:49:39.278Z,3.48
2022-12-02T17:53:41.116Z,3.49
2022-12-02T17:57:42.968Z,3.48
2022-12-02T18:01:45.633Z,3.47
2022-12-02T18:05:47.362Z,3.49
2022-12-02T18:09:48.698Z,3.47
2022-12-02T18:13:50.531Z,3.43
2022-12-02T18:17:53.299Z,3.37
2022-12-02T18:21:57.064Z,3.33
2022-12-02T18:25:58.813Z,3.36
2022-12-02T18:30:00.357Z,3.37
2022-12-02T18:34:04.454Z,3.38
2022-12-02T18:38:06.778Z,3.38
2022-12-02T18:42:08.152Z,3.38
2022-12-02T18:46:09.470Z,3.34
2022-12-02T18:50:11.767Z,3.33
2022-12-02T18:54:13.075Z,3.29
2022-12-02T18:58:14.369Z,3.22
2022-12-02T19:02:15.800Z,3.20
2022-12-02T19:06:17.342Z,3.19
2022-12-02T19:10:18.776Z,3.15
2022-12-02T19:14:20.188Z,3.17
2022-12-02T19:18:21.515Z,3.17
2022-12-02T19:22:22.790Z,3.14
2022-12-02T19:26:25.705Z,3.12
2022-12-02T19:30:27.422Z,3.08
2022-12-02T19:34:28.740Z,3.06
2022-12-02T19:38:30.487Z,3.04
2022-12-02T19:42:31.747Z,3.03
2022-12-02T19:46:33.316Z,3.00
2022-12-02T19:50:35.717Z,3.02
2022-12-02T19:54:37.511Z,3.00
2022-12-02T19:58:39.780Z,3.00
2022-12-02T20:02:41.798Z,2.98
2022-12-02T20:06:43.225Z,2.98
2022-12-02T20:10:44.574Z,2.99
2022-12-02T20:14:45.867Z,3.01
2022-12-02T20:18:47.168Z,2.99
2022-12-02T20:22:51.129Z,2.99
2022-12-02T20:26:52.569Z,3.00
2022-12-02T20:30:53.860Z,3.01
2022-12-02T20:34:55.466Z,3.03
2022-12-02T20:38:56.881Z,3.03
2022-12-02T20:42:58.325Z,3.04
2022-12-02T20:46:59.848Z,3.06
2022-12-02T20:51:01.194Z,3.05
2022-12-02T20:55:05.912Z,3.07
2022-12-02T20:59:07.347Z,3.07
2022-12-02T21:03:08.674Z,3.07
2022-12-02T21:07:10.110Z,3.06
2022-12-02T21:11:11.415Z,3.04
2022-12-02T21:15:15.107Z,3.04
2022-12-02T21:19:18.408Z,3.02
2022-12-02T21:23:19.794Z,3.01
2022-12-02T21:27:21.179Z,2.98
2022-12-02T21:31:22.579Z,2.98
2022-12-02T21:35:23.935Z,2.95
2022-12-02T21:39:26.135Z,2.95
2022-12-02T21:43:27.450Z,2.94
2022-12-02T21:47:28.797Z,2.95
2022-12-02T21:56:37.332Z,2.94
2022-12-02T22:00:42.708Z,2.89
2022-12-02T22:04:47.788Z,2.84
2022-12-02T22:09:06.652Z,2.84
2022-12-02T22:13:12.196Z,2.83
2022-12-02T22:17:13.683Z,2.85
2022-12-02T22:21:15.923Z,2.87
2022-12-02T22:25:17.467Z,2.86
2022-12-02T22:29:23.857Z,2.89
2022-12-02T22:33:35.844Z,2.83
2022-12-02T22:37:39.327Z,2.81
2022-12-02T22:41:41.120Z,2.80
2022-12-02T22:45:42.780Z,2.81
2022-12-02T22:49:44.211Z,2.82
2022-12-02T22:53:45.543Z,2.80
2022-12-02T22:57:46.994Z,2.76
2022-12-02T23:01:49.457Z,2.75
2022-12-02T23:05:51.482Z,2.76
2022-12-02T23:09:53.071Z,2.75
2022-12-02T23:13:55.177Z,2.75
2022-12-02T23:18:03.876Z,2.74
2022-12-02T23:22:06.326Z,2.72
2022-12-02T23:26:09.217Z,2.72
2022-12-02T23:30:14.046Z,2.75
2022-12-02T23:34:15.736Z,2.74
2022-12-02T23:42:39.632Z,2.73
2022-12-02T23:46:41.479Z,2.73
2022-12-02T23:50:46.874Z,2.71
2022-12-02T23:54:48.900Z,2.70
2022-12-02T23:58:50.400Z,2.70
